createdAt,value
2023-03-20T00:00:59.273Z,5.65
2023-03-20T00:02:31.592Z,5.40
2023-03-20T00:04:05.034Z,7.10
2023-03-20T00:05:38.632Z,7.53
2023-03-20T00:07:12.754Z,7.25
2023-03-20T00:08:47.365Z,8.27
2023-03-20T00:10:21.999Z,9.43
2023-03-20T00:11:56.866Z,9.57
2023-03-20T00:15:06.964Z,8.70
2023-03-20T00:16:43.569Z,8.80
2023-03-20T00:18:19.888Z,12.68
2023-03-20T00:19:51.970Z,13.95
2023-03-20T00:21:25.625Z,14.70
2023-03-20T00:22:58.951Z,15.93
2023-03-20T00:24:32.203Z,16.00
2023-03-20T00:26:05.546Z,16.92
2023-03-20T00:27:37.699Z,18.15
2023-03-20T00:29:21.380Z,17.20
2023-03-20T00:30:53.513Z,17.58
2023-03-20T00:32:28.285Z,17.95
2023-03-20T00:34:07.362Z,17.73
2023-03-20T00:35:40.570Z,18.33
2023-03-20T00:37:12.753Z,18.25
2023-03-20T00:38:45.821Z,18.15
2023-03-20T00:40:19.239Z,17.90
2023-03-20T00:41:55.908Z,17.05
2023-03-20T00:43:29.191Z,17.60
2023-03-20T00:45:05.068Z,18.25
2023-03-20T00:46:40.671Z,15.98
2023-03-20T00:48:16.930Z,17.20
2023-03-20T00:49:54.454Z,17.50
2023-03-20T00:51:27.749Z,17.25
2023-03-20T00:53:01.314Z,16.85
2023-03-20T00:54:34.666Z,17.27
2023-03-20T00:56:17.922Z,17.77
2023-03-20T00:57:54.326Z,17.52
2023-03-20T00:59:32.661Z,18.88
2023-03-20T01:01:07.593Z,18.80
2023-03-20T01:02:41.023Z,19.85
2023-03-20T01:04:17.442Z,17.73
2023-03-20T01:05:52.478Z,18.58
2023-03-20T01:07:25.669Z,18.90
2023-03-20T01:08:58.839Z,18.08
2023-03-20T01:10:34.358Z,17.80
2023-03-20T01:12:08.759Z,16.48
2023-03-20T01:13:42.310Z,14.18
2023-03-20T01:15:23.695Z,13.50
2023-03-20T01:16:57.290Z,13.27
2023-03-20T01:18:30.409Z,12.40
2023-03-20T01:20:02.589Z,13.48
2023-03-20T01:21:36.590Z,12.93
2023-03-20T01:23:10.637Z,14.93
2023-03-20T01:24:43.009Z,13.93
2023-03-20T01:26:34.849Z,15.77
2023-03-20T01:28:18.237Z,12.88
2023-03-20T01:29:50.392Z,11.93
2023-03-20T01:31:24.323Z,11.40
2023-03-20T01:33:00.795Z,11.25
2023-03-20T01:34:34.005Z,11.10
2023-03-20T01:36:10.500Z,11.95
2023-03-20T01:37:45.064Z,12.80
2023-03-20T01:39:19.101Z,11.52
2023-03-20T01:40:58.329Z,12.40
2023-03-20T01:42:32.338Z,11.90
2023-03-20T01:44:22.104Z,12.48
2023-03-20T01:46:04.024Z,12.70
2023-03-20T01:47:41.128Z,11.75
2023-03-20T01:50:17.582Z,12.25
2023-03-20T01:51:54.601Z,10.10
2023-03-20T01:53:31.212Z,11.27
2023-03-20T01:55:07.844Z,9.95
2023-03-20T01:58:27.045Z,7.68
2023-03-20T02:00:07.053Z,7.68
2023-03-20T02:01:49.707Z,7.97
2023-03-20T02:03:26.056Z,8.90
2023-03-20T02:06:57.269Z,6.85
2023-03-20T02:08:47.184Z,6.32
2023-03-20T02:10:21.880Z,6.78
2023-03-20T02:13:36.440Z,5.30
2023-03-20T02:15:11.822Z,5.60
2023-03-20T02:16:59.201Z,5.75
2023-03-20T02:18:41.367Z,5.63
2023-03-20T02:20:32.899Z,5.80
2023-03-20T02:22:52.091Z,5.63
2023-03-20T02:25:29.378Z,5.30
2023-03-20T02:27:14.529Z,5.30
2023-03-20T02:29:28.696Z,5.03
2023-03-20T02:31:30.810Z,5.43
2023-03-20T02:33:54.669Z,5.20
2023-03-20T02:36:27.475Z,5.47
2023-03-20T02:38:30.796Z,4.72
2023-03-20T02:40:22.571Z,5.65
2023-03-20T02:42:05.689Z,5.10
2023-03-20T02:43:48.703Z,5.53
2023-03-20T02:45:28.907Z,4.85
2023-03-20T02:47:24.835Z,5.25
2023-03-20T02:49:11.552Z,5.32
2023-03-20T02:50:52.685Z,5.75
2023-03-20T02:52:37.166Z,5.65
2023-03-20T02:54:24.455Z,5.53
2023-03-20T02:56:13.254Z,6.78
2023-03-20T02:58:00.984Z,5.88
2023-03-20T02:59:43.070Z,6.00
2023-03-20T03:01:25.074Z,6.05
2023-03-20T03:03:11.529Z,6.35
2023-03-20T03:04:56.621Z,6.13
2023-03-20T03:06:33.019Z,5.85
2023-03-20T03:08:10.943Z,6.32
2023-03-20T03:09:53.735Z,6.05
2023-03-20T03:11:27.257Z,5.60
2023-03-20T03:13:05.665Z,6.00
2023-03-20T03:14:46.606Z,6.80
2023-03-20T03:16:28.187Z,5.82
2023-03-20T03:18:04.998Z,5.93
2023-03-20T03:19:42.415Z,5.97
2023-03-20T03:21:19.759Z,5.38
2023-03-20T03:22:53.479Z,5.65
2023-03-20T03:24:40.743Z,5.50
2023-03-20T03:26:23.687Z,5.40
2023-03-20T03:28:09.204Z,5.10
2023-03-20T03:29:44.030Z,5.50
2023-03-20T03:31:19.477Z,5.50
2023-03-20T03:33:15.313Z,5.25
2023-03-20T03:34:49.181Z,5.57
2023-03-20T03:36:39.595Z,4.85
2023-03-20T03:38:30.850Z,5.05
2023-03-20T03:40:20.962Z,5.00
2023-03-20T03:42:07.638Z,4.47
2023-03-20T03:43:51.956Z,4.40
2023-03-20T03:45:34.521Z,4.50
2023-03-20T03:47:14.032Z,4.53
2023-03-20T03:48:55.349Z,4.40
2023-03-20T03:50:34.990Z,4.75
2023-03-20T03:52:14.405Z,3.78
2023-03-20T03:53:55.281Z,4.32
2023-03-20T03:55:36.381Z,3.88
2023-03-20T03:57:23.699Z,4.20
2023-03-20T03:59:01.838Z,4.28
2023-03-20T04:00:36.552Z,4.15
2023-03-20T04:02:11.283Z,4.05
2023-03-20T04:03:52.143Z,4.22
2023-03-20T04:05:31.344Z,4.53
2023-03-20T04:07:05.560Z,4.75
2023-03-20T04:10:15.339Z,4.22
2023-03-20T04:11:53.283Z,4.40
2023-03-20T04:13:26.869Z,4.85
2023-03-20T04:15:02.465Z,4.80
2023-03-20T04:16:36.770Z,5.05
2023-03-20T04:18:16.452Z,4.80
2023-03-20T04:19:50.704Z,4.72
2023-03-20T04:21:25.480Z,4.40
2023-03-20T04:22:59.133Z,4.57
2023-03-20T04:24:32.810Z,4.60
2023-03-20T04:26:07.532Z,4.65
2023-03-20T04:27:40.728Z,4.88
2023-03-20T04:29:21.416Z,5.20
2023-03-20T04:31:02.750Z,4.50
2023-03-20T04:32:54.455Z,4.38
2023-03-20T04:34:39.301Z,4.03
2023-03-20T04:36:32.549Z,3.45
2023-03-20T04:38:04.837Z,5.03
2023-03-20T04:39:42.294Z,3.88
2023-03-20T04:41:15.462Z,4.63
2023-03-20T04:42:49.906Z,4.75
2023-03-20T04:44:25.526Z,4.65
2023-03-20T04:45:59.142Z,4.30
2023-03-20T04:47:32.618Z,5.20
2023-03-20T04:49:06.206Z,4.80
2023-03-20T04:50:39.784Z,4.40
2023-03-20T04:52:13.730Z,4.88
2023-03-20T04:53:49.197Z,4.50
2023-03-20T04:55:22.628Z,5.20
2023-03-20T04:56:56.250Z,5.10
2023-03-20T04:58:29.936Z,4.80
2023-03-20T05:00:05.276Z,4.75
2023-03-20T05:01:38.628Z,4.57
2023-03-20T05:03:12.048Z,4.97
2023-03-20T05:04:45.852Z,5.53
2023-03-20T05:06:19.164Z,5.60
2023-03-20T05:07:53.113Z,5.10
2023-03-20T05:09:35.197Z,5.25
2023-03-20T05:11:10.893Z,5.97
2023-03-20T05:13:02.697Z,5.32
2023-03-20T05:14:59.669Z,5.55
2023-03-20T05:16:57.279Z,6.15
2023-03-20T05:18:29.626Z,6.07
2023-03-20T05:20:31.336Z,5.88
2023-03-20T05:22:11.365Z,5.15
2023-03-20T05:25:36.966Z,5.47
2023-03-20T05:27:43.005Z,4.78
2023-03-20T05:29:40.597Z,4.85
2023-03-20T05:31:13.776Z,5.40
2023-03-20T05:33:08.463Z,4.93
2023-03-20T05:35:12.658Z,5.55
2023-03-20T05:37:08.980Z,4.55
2023-03-20T05:39:00.913Z,5.03
2023-03-20T05:40:50.564Z,5.97
2023-03-20T05:42:23.886Z,5.05
2023-03-20T05:44:16.504Z,5.28
2023-03-20T05:46:04.494Z,5.60
2023-03-20T05:48:01.065Z,5.50
2023-03-20T05:49:53.759Z,6.30
2023-03-20T05:51:38.227Z,5.22
2023-03-20T05:53:28.246Z,4.93
2023-03-20T05:55:16.950Z,5.03
2023-03-20T05:57:10.050Z,4.90
2023-03-20T05:59:02.876Z,5.03
2023-03-20T06:00:53.429Z,4.95
2023-03-20T06:02:47.344Z,4.68
2023-03-20T06:04:58.297Z,5.30
2023-03-20T06:06:37.819Z,5.85
2023-03-20T06:08:11.232Z,5.53
2023-03-20T06:09:44.426Z,6.15
2023-03-20T06:11:19.912Z,6.10
2023-03-20T06:12:55.009Z,5.72
2023-03-20T06:14:31.719Z,6.43
2023-03-20T06:16:10.457Z,6.05
2023-03-20T06:17:44.707Z,7.00
2023-03-20T06:19:21.949Z,6.78
2023-03-20T06:20:58.296Z,6.82
2023-03-20T06:22:34.244Z,6.40
2023-03-20T06:24:08.485Z,6.28
2023-03-20T06:25:41.587Z,6.80
2023-03-20T06:27:14.869Z,7.20
2023-03-20T06:28:48.742Z,6.85
2023-03-20T06:30:22.049Z,6.65
2023-03-20T06:31:57.016Z,7.50
2023-03-20T06:33:34.661Z,6.90
2023-03-20T06:35:09.964Z,6.53
2023-03-20T06:36:45.680Z,6.80
2023-03-20T06:38:24.997Z,6.15
2023-03-20T06:39:58.600Z,7.15
2023-03-20T06:41:34.916Z,7.13
2023-03-20T06:43:12.645Z,6.72
2023-03-20T06:44:52.833Z,7.28
2023-03-20T06:46:55.130Z,6.40
2023-03-20T06:48:28.318Z,5.88
2023-03-20T06:50:02.261Z,6.93
2023-03-20T06:51:37.411Z,6.22
2023-03-20T06:53:13.406Z,6.72
2023-03-20T06:54:52.055Z,6.80
2023-03-20T06:56:25.597Z,6.28
2023-03-20T06:57:58.654Z,6.32
2023-03-20T06:59:32.428Z,5.95
2023-03-20T07:01:11.328Z,6.68
2023-03-20T07:02:44.786Z,6.20
2023-03-20T07:04:20.906Z,6.40
2023-03-20T07:05:58.195Z,5.63
2023-03-20T07:07:31.526Z,5.63
2023-03-20T07:09:07.691Z,5.53
2023-03-20T07:10:41.092Z,5.32
2023-03-20T07:12:15.952Z,6.07
2023-03-20T07:13:50.293Z,5.93
2023-03-20T07:16:01.283Z,5.57
2023-03-20T07:17:39.308Z,5.43
2023-03-20T07:19:13.439Z,5.93
2023-03-20T07:20:49.363Z,6.30
2023-03-20T07:22:26.941Z,5.90
2023-03-20T07:24:12.246Z,5.82
2023-03-20T07:27:23.396Z,5.45
2023-03-20T07:28:59.964Z,5.38
2023-03-20T07:30:33.740Z,5.43
2023-03-20T07:32:06.969Z,5.90
2023-03-20T07:33:43.602Z,5.50
2023-03-20T07:35:16.937Z,4.80
2023-03-20T07:36:50.945Z,5.68
2023-03-20T07:38:27.108Z,5.45
2023-03-20T07:40:14.293Z,5.25
2023-03-20T07:41:59.303Z,5.38
2023-03-20T07:43:44.908Z,5.55
2023-03-20T07:45:27.209Z,4.65
2023-03-20T07:47:02.651Z,4.45
2023-03-20T07:48:35.898Z,4.93
2023-03-20T07:50:10.151Z,4.90
2023-03-20T07:51:43.262Z,4.75
2023-03-20T07:53:16.652Z,5.25
2023-03-20T07:54:49.743Z,5.07
2023-03-20T07:56:24.377Z,4.60
2023-03-20T07:57:57.847Z,4.57
2023-03-20T07:59:31.128Z,4.65
2023-03-20T08:01:04.827Z,4.28
2023-03-20T08:02:38.218Z,4.45
2023-03-20T08:04:11.781Z,4.13
2023-03-20T08:05:47.301Z,3.75
2023-03-20T08:07:21.256Z,4.05
2023-03-20T08:08:54.540Z,4.22
2023-03-20T08:10:27.817Z,4.47
2023-03-20T08:12:02.278Z,3.83
2023-03-20T08:13:35.600Z,4.05
2023-03-20T08:15:10.582Z,3.50
2023-03-20T08:18:16.895Z,2.92
2023-03-20T08:19:50.358Z,2.95
2023-03-20T08:21:23.548Z,2.80
2023-03-20T08:22:56.850Z,2.60
2023-03-20T08:24:30.729Z,2.05
2023-03-20T08:26:03.906Z,2.38
2023-03-20T08:27:39.479Z,2.33
2023-03-20T08:29:12.762Z,2.10
2023-03-20T08:30:46.057Z,2.00
2023-03-20T08:32:19.397Z,2.17
2023-03-20T08:33:53.301Z,2.22
2023-03-20T08:35:33.312Z,2.10
2023-03-20T08:37:07.837Z,2.22
2023-03-20T08:38:41.001Z,2.38
2023-03-20T08:40:14.612Z,2.30
2023-03-20T08:41:48.499Z,2.35
2023-03-20T08:43:23.175Z,2.17
2023-03-20T08:44:56.523Z,2.42
2023-03-20T08:46:29.907Z,2.38
2023-03-20T08:48:03.247Z,2.28
2023-03-20T08:49:36.864Z,2.58
2023-03-20T08:51:10.089Z,2.38
2023-03-20T08:52:44.119Z,2.25
2023-03-20T08:54:18.624Z,3.10
2023-03-20T08:55:54.042Z,2.50
2023-03-20T08:57:27.208Z,2.60
2023-03-20T08:59:01.702Z,2.70
2023-03-20T09:00:34.873Z,2.67
2023-03-20T09:02:08.708Z,2.92
2023-03-20T09:03:42.329Z,2.80
2023-03-20T09:05:16.003Z,3.00
2023-03-20T09:06:51.574Z,3.13
2023-03-20T09:08:24.866Z,2.83
2023-03-20T09:09:58.007Z,3.13
2023-03-20T09:11:31.289Z,3.08
2023-03-20T09:13:15.685Z,3.85
2023-03-20T09:14:58.924Z,3.05
2023-03-20T09:16:32.113Z,3.17
2023-03-20T09:18:05.811Z,3.17
2023-03-20T09:19:39.966Z,3.38
2023-03-20T09:21:13.135Z,3.25
2023-03-20T09:22:46.544Z,2.97
2023-03-20T09:24:19.735Z,3.22
2023-03-20T09:25:52.874Z,3.33
2023-03-20T09:27:26.154Z,3.78
2023-03-20T09:28:59.484Z,3.70
2023-03-20T09:30:34.647Z,3.50
2023-03-20T09:32:08.218Z,3.60
2023-03-20T09:33:41.370Z,3.33
2023-03-20T09:35:14.781Z,3.60
2023-03-20T09:36:47.948Z,3.78
2023-03-20T09:38:21.513Z,3.72
2023-03-20T09:39:58.305Z,4.00
2023-03-20T09:41:48.965Z,4.40
2023-03-20T09:43:49.915Z,3.72
2023-03-20T09:45:41.665Z,4.20
2023-03-20T09:47:21.658Z,4.30
2023-03-20T09:49:10.555Z,4.00
2023-03-20T09:50:52.594Z,3.80
2023-03-20T09:52:34.098Z,3.88
2023-03-20T09:54:18.686Z,3.78
2023-03-20T09:55:54.753Z,3.72
2023-03-20T09:57:33.612Z,4.13
2023-03-20T09:59:08.778Z,4.70
2023-03-20T10:00:47.585Z,4.18
2023-03-20T10:02:35.410Z,4.55
2023-03-20T10:04:11.649Z,4.43
2023-03-20T10:05:52.456Z,4.40
2023-03-20T10:07:27.046Z,3.88
2023-03-20T10:09:00.229Z,4.20
2023-03-20T10:10:48.318Z,4.40
2023-03-20T10:12:49.882Z,3.78
2023-03-20T10:14:34.901Z,4.63
2023-03-20T10:16:21.229Z,4.82
2023-03-20T10:19:45.705Z,3.70
2023-03-20T10:21:31.719Z,3.97
2023-03-20T10:23:13.484Z,4.72
2023-03-20T10:24:55.237Z,5.15
2023-03-20T10:26:30.932Z,4.38
2023-03-20T10:28:13.366Z,5.90
2023-03-20T10:29:58.517Z,5.18
2023-03-20T10:31:44.840Z,4.53
2023-03-20T10:33:46.848Z,5.40
2023-03-20T10:35:29.254Z,4.95
2023-03-20T10:37:24.531Z,4.72
2023-03-20T10:39:07.346Z,4.97
2023-03-20T10:40:44.890Z,4.90
2023-03-20T10:42:24.647Z,4.72
2023-03-20T10:44:00.517Z,5.43
2023-03-20T10:45:44.039Z,5.28
2023-03-20T10:47:25.834Z,4.97
2023-03-20T10:49:06.445Z,4.60
2023-03-20T10:50:48.957Z,5.47
2023-03-20T10:52:27.673Z,4.70
2023-03-20T10:54:06.033Z,4.47
2023-03-20T10:55:45.073Z,5.28
2023-03-20T10:57:24.268Z,4.78
2023-03-20T10:59:06.800Z,5.25
2023-03-20T11:00:40.566Z,4.68
2023-03-20T11:02:16.155Z,4.80
2023-03-20T11:03:51.008Z,4.90
2023-03-20T11:05:31.548Z,4.57
2023-03-20T11:07:17.238Z,4.88
2023-03-20T11:08:53.657Z,4.47
2023-03-20T11:10:28.354Z,5.00
2023-03-20T11:12:04.597Z,5.40
2023-03-20T11:13:42.886Z,4.55
2023-03-20T11:15:23.826Z,4.57
2023-03-20T11:17:03.678Z,4.93
2023-03-20T11:18:36.845Z,4.50
2023-03-20T11:20:15.349Z,5.03
2023-03-20T11:21:52.994Z,5.03
2023-03-20T11:23:30.403Z,5.30
2023-03-20T11:25:03.905Z,5.60
2023-03-20T11:26:41.072Z,5.72
2023-03-20T11:28:26.334Z,6.00
2023-03-20T11:30:03.493Z,5.32
2023-03-20T11:31:40.702Z,5.15
2023-03-20T11:33:16.555Z,5.28
2023-03-20T11:34:50.881Z,4.38
2023-03-20T11:36:30.203Z,4.18
2023-03-20T11:38:16.455Z,4.20
2023-03-20T11:39:59.321Z,4.13
2023-03-20T11:41:33.406Z,3.78
2023-03-20T11:43:13.992Z,3.95
2023-03-20T11:46:31.962Z,3.03
2023-03-20T11:48:07.974Z,3.03
2023-03-20T11:49:50.594Z,3.15
2023-03-20T11:51:26.393Z,3.08
2023-03-20T11:53:00.213Z,3.15
2023-03-20T11:54:33.676Z,3.17
2023-03-20T11:56:11.835Z,3.28
2023-03-20T11:57:47.401Z,3.40
2023-03-20T11:59:21.802Z,3.15
2023-03-20T12:00:57.415Z,2.88
2023-03-20T12:02:31.203Z,2.97
2023-03-20T12:04:09.166Z,4.03
2023-03-20T12:05:42.350Z,3.17
2023-03-20T12:07:24.140Z,3.20
2023-03-20T12:09:03.717Z,3.30
2023-03-20T12:10:43.513Z,3.70
2023-03-20T12:12:37.831Z,2.83
2023-03-20T12:14:24.978Z,3.38
2023-03-20T12:16:04.588Z,3.30
2023-03-20T12:17:48.780Z,4.30
2023-03-20T12:19:30.751Z,5.53
2023-03-20T12:21:12.450Z,4.00
2023-03-20T12:22:57.807Z,3.03
2023-03-20T12:24:39.771Z,2.95
2023-03-20T12:26:17.650Z,4.63
2023-03-20T12:28:04.801Z,4.82
2023-03-20T12:29:47.184Z,3.08
2023-03-20T12:31:31.227Z,2.83
2023-03-20T12:33:13.164Z,2.50
2023-03-20T12:34:56.411Z,2.63
2023-03-20T12:36:41.863Z,2.50
2023-03-20T12:38:31.379Z,2.00
2023-03-20T12:40:06.391Z,1.92
2023-03-20T12:41:50.513Z,1.98
2023-03-20T12:43:28.490Z,3.03
2023-03-20T12:45:11.926Z,2.58
2023-03-20T12:46:57.410Z,2.47
2023-03-20T12:49:04.578Z,2.90
2023-03-20T12:50:41.569Z,3.78
2023-03-20T12:52:29.349Z,2.25
2023-03-20T12:54:23.517Z,2.13
2023-03-20T12:56:15.477Z,3.45
2023-03-20T12:58:02.626Z,5.53
2023-03-20T12:59:59.406Z,9.07
2023-03-20T13:01:37.826Z,3.58
2023-03-20T13:03:30.246Z,2.42
2023-03-20T13:05:23.985Z,14.00
2023-03-20T13:07:01.951Z,4.20
2023-03-20T13:09:41.694Z,3.17
2023-03-20T13:11:32.221Z,5.85
2023-03-20T13:13:20.991Z,4.32
2023-03-20T13:15:06.884Z,3.42
2023-03-20T13:16:52.274Z,2.55
2023-03-20T13:18:52.003Z,2.80
2023-03-20T13:20:30.040Z,2.45
2023-03-20T13:22:09.701Z,4.90
2023-03-20T13:23:55.803Z,2.70
2023-03-20T13:25:53.674Z,2.53
2023-03-20T13:27:40.261Z,2.50
2023-03-20T13:29:23.841Z,3.17
2023-03-20T13:31:09.138Z,3.20
2023-03-20T13:32:58.658Z,2.80
2023-03-20T13:34:54.869Z,2.55
2023-03-20T13:36:51.092Z,2.63
2023-03-20T13:38:29.215Z,3.15
2023-03-20T13:40:12.568Z,3.95
2023-03-20T13:41:48.801Z,2.92
2023-03-20T13:43:31.292Z,2.97
2023-03-20T13:45:14.557Z,3.20
2023-03-20T13:46:52.629Z,2.58
2023-03-20T13:48:34.771Z,3.30
2023-03-20T13:50:28.821Z,3.00
2023-03-20T13:52:11.368Z,3.10
2023-03-20T13:54:02.546Z,3.03
2023-03-20T13:55:49.366Z,3.03
2023-03-20T13:57:47.826Z,2.92
2023-03-20T13:59:44.530Z,2.55
2023-03-20T14:01:25.917Z,2.90
2023-03-20T14:03:17.760Z,2.63
2023-03-20T14:05:06.057Z,2.53
2023-03-20T14:06:50.960Z,2.78
2023-03-20T14:08:33.679Z,2.78
2023-03-20T14:10:36.062Z,3.03
2023-03-20T14:12:13.307Z,2.83
2023-03-20T14:13:51.792Z,3.00
2023-03-20T14:15:28.974Z,3.00
2023-03-20T14:17:16.086Z,3.00
2023-03-20T14:18:51.203Z,3.30
2023-03-20T14:20:32.507Z,3.80
2023-03-20T14:22:07.456Z,3.55
2023-03-20T14:25:25.797Z,3.35
2023-03-20T14:27:03.987Z,3.47
2023-03-20T14:28:59.947Z,3.47
2023-03-20T14:30:44.577Z,3.58
2023-03-20T14:32:36.379Z,3.70
2023-03-20T14:34:18.050Z,3.05
2023-03-20T14:36:11.440Z,3.35
2023-03-20T14:38:21.961Z,3.75
2023-03-20T14:40:04.059Z,3.75
2023-03-20T14:41:57.366Z,4.63
2023-03-20T14:43:58.548Z,3.20
2023-03-20T14:45:44.051Z,2.55
2023-03-20T14:47:33.293Z,2.38
2023-03-20T14:49:35.045Z,2.38
2023-03-20T14:51:27.643Z,2.30
2023-03-20T14:53:17.826Z,1.85
2023-03-20T14:54:53.854Z,1.90
2023-03-20T14:56:32.369Z,1.90
2023-03-20T14:58:38.954Z,1.52
2023-03-20T15:00:21.110Z,1.52
2023-03-20T15:02:07.887Z,1.15
2023-03-20T15:03:43.057Z,1.23
2023-03-20T15:05:29.483Z,1.60
2023-03-20T15:08:46.141Z,1.05
2023-03-20T15:10:19.928Z,1.00
2023-03-20T15:11:59.759Z,1.30
2023-03-20T15:13:36.086Z,1.58
2023-03-20T15:15:25.710Z,1.10
2023-03-20T15:17:02.230Z,1.13
2023-03-20T15:18:41.726Z,1.00
2023-03-20T15:20:19.071Z,1.23
2023-03-20T15:21:52.140Z,1.30
2023-03-20T15:23:26.951Z,1.20
2023-03-20T15:26:36.503Z,1.10
2023-03-20T15:28:18.052Z,0.80
2023-03-20T15:29:55.904Z,1.45
2023-03-20T15:31:32.619Z,1.50
2023-03-20T15:33:09.095Z,1.30
2023-03-20T15:34:44.655Z,1.27
2023-03-20T15:36:21.457Z,1.05
2023-03-20T15:37:57.957Z,1.25
2023-03-20T15:39:43.862Z,0.93
2023-03-20T15:41:28.998Z,1.25
2023-03-20T15:43:13.613Z,1.27
2023-03-20T15:44:50.060Z,1.45
2023-03-20T15:46:27.717Z,1.38
2023-03-20T15:48:02.496Z,1.30
2023-03-20T15:49:37.928Z,1.20
2023-03-20T15:51:12.277Z,1.50
2023-03-20T15:52:52.738Z,1.52
2023-03-20T15:54:26.493Z,1.05
2023-03-20T15:56:17.310Z,1.52
2023-03-20T15:57:53.980Z,1.23
2023-03-20T15:59:31.235Z,1.20
2023-03-20T16:01:06.494Z,1.40
2023-03-20T16:02:39.778Z,1.50
2023-03-20T16:04:16.832Z,1.50
2023-03-20T16:05:53.772Z,1.23
2023-03-20T16:07:31.679Z,1.30
2023-03-20T16:09:09.247Z,1.25
2023-03-20T16:10:44.713Z,1.75
2023-03-20T16:12:33.518Z,1.17
2023-03-20T16:14:28.152Z,1.20
2023-03-20T16:16:24.224Z,1.05
2023-03-20T16:18:16.288Z,1.48
2023-03-20T16:19:56.998Z,1.17
2023-03-20T16:21:50.408Z,1.40
2023-03-20T16:23:51.795Z,1.42
2023-03-20T16:25:32.362Z,1.42
2023-03-20T16:27:13.871Z,1.13
2023-03-20T16:29:03.594Z,1.20
2023-03-20T16:31:02.306Z,0.80
2023-03-20T16:32:54.138Z,0.95
2023-03-20T16:34:43.587Z,1.15
2023-03-20T16:36:37.003Z,0.90
2023-03-20T16:38:32.816Z,1.30
2023-03-20T16:40:30.746Z,1.08
2023-03-20T16:42:36.740Z,1.13
2023-03-20T16:44:26.095Z,0.98
2023-03-20T16:46:16.116Z,1.20
2023-03-20T16:47:50.923Z,0.90
2023-03-20T16:49:51.545Z,0.88
2023-03-20T16:51:28.351Z,1.20
2023-03-20T16:53:01.926Z,1.70
2023-03-20T16:54:38.180Z,1.02
2023-03-20T16:56:14.308Z,1.27
2023-03-20T16:57:52.609Z,1.17
2023-03-20T16:59:27.702Z,1.00
2023-03-20T17:01:04.590Z,1.23
2023-03-20T17:02:41.264Z,1.25
2023-03-20T17:04:21.395Z,1.30
2023-03-20T17:06:00.756Z,0.93
2023-03-20T17:07:34.381Z,1.17
2023-03-20T17:09:21.381Z,1.40
2023-03-20T17:11:00.385Z,1.65
2023-03-20T17:12:33.673Z,1.23
2023-03-20T17:14:06.849Z,1.42
2023-03-20T17:15:40.091Z,1.58
2023-03-20T17:17:14.491Z,1.10
2023-03-20T17:18:58.797Z,1.63
2023-03-20T17:20:32.009Z,1.55
2023-03-20T17:22:15.639Z,1.70
2023-03-20T17:23:48.767Z,1.92
2023-03-20T17:25:22.377Z,1.42
2023-03-20T17:26:57.625Z,1.50
2023-03-20T17:28:36.990Z,0.98
2023-03-20T17:30:18.750Z,1.42
2023-03-20T17:31:51.938Z,1.42
2023-03-20T17:33:25.084Z,1.73
2023-03-20T17:34:58.169Z,1.70
2023-03-20T17:36:33.828Z,1.65
2023-03-20T17:38:08.366Z,1.60
2023-03-20T17:39:41.991Z,1.65
2023-03-20T17:41:17.069Z,1.63
2023-03-20T17:42:51.573Z,1.60
2023-03-20T17:44:24.848Z,1.30
2023-03-20T17:45:59.355Z,1.42
2023-03-20T17:47:33.230Z,1.30
2023-03-20T17:49:11.598Z,1.42
2023-03-20T17:50:46.262Z,1.13
2023-03-20T17:52:22.977Z,1.38
2023-03-20T17:53:57.809Z,1.10
2023-03-20T17:57:04.150Z,1.00
2023-03-20T17:58:39.355Z,1.40
2023-03-20T18:00:20.375Z,1.48
2023-03-20T18:01:53.629Z,1.40
2023-03-20T18:03:26.951Z,1.40
2023-03-20T18:05:00.170Z,1.50
2023-03-20T18:06:35.048Z,1.70
2023-03-20T18:09:48.922Z,1.35
2023-03-20T18:11:22.592Z,1.27
2023-03-20T18:12:55.705Z,2.17
2023-03-20T18:14:30.196Z,1.30
2023-03-20T18:16:03.592Z,1.33
2023-03-20T18:17:36.716Z,1.30
2023-03-20T18:19:23.296Z,1.38
2023-03-20T18:20:57.345Z,1.90
2023-03-20T18:22:30.471Z,1.73
2023-03-20T18:24:03.670Z,2.22
2023-03-20T18:25:37.456Z,1.65
2023-03-20T18:27:12.020Z,1.67
2023-03-20T18:28:45.235Z,2.17
2023-03-20T18:30:24.151Z,1.88
2023-03-20T18:31:57.551Z,1.77
2023-03-20T18:33:30.955Z,2.17
2023-03-20T18:35:04.400Z,1.67
2023-03-20T18:36:37.575Z,1.58
2023-03-20T18:38:13.911Z,1.80
2023-03-20T18:39:47.433Z,1.40
2023-03-20T18:41:21.419Z,1.52
2023-03-20T18:42:56.238Z,1.88
2023-03-20T18:44:29.328Z,1.67
2023-03-20T18:46:03.906Z,1.10
2023-03-20T18:47:37.237Z,1.55
2023-03-20T18:49:16.843Z,1.23
2023-03-20T18:50:52.390Z,1.80
2023-03-20T18:52:25.768Z,1.80
2023-03-20T18:53:58.890Z,1.55
2023-03-20T18:55:33.386Z,1.40
2023-03-20T18:57:06.523Z,1.80
2023-03-20T18:58:40.048Z,1.40
2023-03-20T19:00:25.599Z,1.55
2023-03-20T19:02:00.940Z,1.60
2023-03-20T19:03:39.181Z,1.73
2023-03-20T19:05:12.742Z,1.55
2023-03-20T19:06:46.365Z,1.85
2023-03-20T19:08:20.192Z,1.60
2023-03-20T19:09:54.245Z,1.40
2023-03-20T19:11:28.182Z,1.65
2023-03-20T19:13:02.188Z,1.63
2023-03-20T19:14:35.527Z,1.42
2023-03-20T19:16:23.267Z,1.60
2023-03-20T19:17:58.264Z,1.30
2023-03-20T19:21:04.891Z,1.30
2023-03-20T19:22:38.016Z,1.38
2023-03-20T19:24:12.425Z,1.40
2023-03-20T19:25:48.782Z,1.50
2023-03-20T19:27:22.170Z,1.25
2023-03-20T19:28:57.865Z,1.90
2023-03-20T19:30:34.826Z,1.15
2023-03-20T19:32:08.095Z,1.65
2023-03-20T19:33:42.663Z,1.45
2023-03-20T19:35:46.789Z,1.50
2023-03-20T19:37:13.054Z,1.65
2023-03-20T19:38:46.416Z,1.40
2023-03-20T19:40:31.941Z,1.52
2023-03-20T19:42:30.338Z,1.42
2023-03-20T19:44:01.456Z,1.80
2023-03-20T19:45:38.258Z,1.27
2023-03-20T19:47:12.289Z,1.80
2023-03-20T19:48:51.058Z,1.67
2023-03-20T19:50:30.636Z,1.88
2023-03-20T19:52:07.039Z,1.70
2023-03-20T19:53:40.709Z,2.20
2023-03-20T19:55:14.422Z,2.35
2023-03-20T19:56:47.783Z,2.22
2023-03-20T19:58:21.492Z,2.33
2023-03-20T19:59:54.680Z,2.47
2023-03-20T20:01:27.942Z,2.60
2023-03-20T20:03:03.511Z,2.50
2023-03-20T20:04:38.376Z,2.35
2023-03-20T20:06:12.388Z,2.10
2023-03-20T20:08:17.046Z,2.25
2023-03-20T20:09:38.837Z,1.73
2023-03-20T20:11:14.633Z,1.98
2023-03-20T20:12:48.451Z,2.10
2023-03-20T20:14:23.811Z,2.22
2023-03-20T20:15:58.166Z,2.08
2023-03-20T20:17:31.577Z,2.03
2023-03-20T20:19:05.816Z,2.10
2023-03-20T20:21:27.258Z,1.90
2023-03-20T20:22:39.297Z,1.92
2023-03-20T20:24:13.110Z,1.63
2023-03-20T20:25:50.469Z,1.88
2023-03-20T20:27:31.503Z,1.48
2023-03-20T20:29:04.675Z,2.13
2023-03-20T20:30:39.556Z,1.77
2023-03-20T20:32:12.747Z,1.80
2023-03-20T20:34:02.252Z,1.95
2023-03-20T20:36:15.308Z,1.33
2023-03-20T20:38:28.280Z,1.90
2023-03-20T20:39:39.533Z,1.83
2023-03-20T20:42:49.201Z,3.13
2023-03-20T20:44:22.335Z,2.75
2023-03-20T20:45:55.689Z,2.20
2023-03-20T20:47:28.802Z,3.30
2023-03-20T20:49:18.094Z,3.17
2023-03-20T20:50:53.412Z,2.33
2023-03-20T20:52:26.547Z,2.30
2023-03-20T20:53:59.864Z,2.22
2023-03-20T20:55:36.285Z,2.10
2023-03-20T20:57:11.927Z,2.30
2023-03-20T20:58:45.142Z,2.10
2023-03-20T21:00:21.279Z,1.80
2023-03-20T21:01:54.661Z,1.77
2023-03-20T21:03:29.033Z,1.85
2023-03-20T21:05:03.363Z,2.30
2023-03-20T21:07:06.163Z,2.00
2023-03-20T21:08:31.035Z,2.42
2023-03-20T21:10:07.152Z,1.80
2023-03-20T21:11:40.474Z,2.17
2023-03-20T21:13:17.031Z,2.13
2023-03-20T21:14:52.265Z,1.50
2023-03-20T21:16:34.445Z,1.75
2023-03-20T21:18:10.665Z,1.70
2023-03-20T21:19:44.786Z,1.77
2023-03-20T21:21:19.045Z,1.77
2023-03-20T21:22:53.494Z,1.80
2023-03-20T21:24:33.074Z,1.50
2023-03-20T21:27:46.282Z,1.38
2023-03-20T21:29:19.891Z,1.95
2023-03-20T21:31:16.502Z,1.90
2023-03-20T21:32:47.380Z,1.63
2023-03-20T21:34:26.007Z,1.50
2023-03-20T21:36:02.282Z,1.73
2023-03-20T21:39:37.521Z,1.48
2023-03-20T21:41:12.667Z,1.50
2023-03-20T21:42:48.243Z,1.48
2023-03-20T21:44:57.396Z,1.85
2023-03-20T21:46:55.284Z,1.60
2023-03-20T21:49:06.268Z,1.35
2023-03-20T21:54:47.761Z,1.63
2023-03-20T21:56:31.468Z,1.63
2023-03-20T22:00:06.847Z,1.48
2023-03-20T22:03:37.000Z,1.60
2023-03-20T22:07:36.569Z,1.60
2023-03-20T22:13:29.578Z,1.70
2023-03-20T22:15:25.404Z,1.58
2023-03-20T22:17:33.173Z,2.08
2023-03-20T22:21:15.630Z,2.28
2023-03-20T22:23:07.659Z,2.05
2023-03-20T22:30:43.538Z,2.22
2023-03-20T22:34:25.811Z,2.00
2023-03-20T22:40:14.343Z,1.90
2023-03-20T22:45:10.165Z,2.78
2023-03-20T22:46:46.994Z,2.20
2023-03-20T22:48:22.589Z,2.38
2023-03-20T22:51:36.835Z,2.03
2023-03-20T22:53:11.675Z,2.65
2023-03-20T22:54:44.880Z,2.53
2023-03-20T22:56:19.404Z,2.20
2023-03-20T22:58:06.354Z,2.60
2023-03-20T22:59:41.026Z,2.78
2023-03-20T23:01:14.287Z,2.47
2023-03-20T23:03:17.570Z,2.00
2023-03-20T23:05:14.259Z,2.45
2023-03-20T23:07:06.106Z,2.55
2023-03-20T23:08:49.276Z,2.22
2023-03-20T23:10:25.224Z,2.65
2023-03-20T23:11:59.973Z,2.28
2023-03-20T23:13:33.124Z,2.80
2023-03-20T23:15:08.283Z,2.38